sensor_id;sensor_type;location;lat;lon;timestamp;pressure;altitude;pressure_sealevel;temperature;humidity
76598;BME280;65486;53.144;18.134;2023-05-20T00:00:34;102303.39;;;11.21;75.83
76598;BME280;65486;53.144;18.134;2023-05-20T00:03:17;102303.27;;;11.20;76.25
76598;BME280;65486;53.144;18.134;2023-05-20T00:05:49;102299.52;;;11.19;76.64
76598;BME280;65486;53.144;18.134;2023-05-20T00:08:17;102295.80;;;11.18;76.22
76598;BME280;65486;53.144;18.134;2023-05-20T00:10:51;102296.61;;;11.18;76.45
76598;BME280;65486;53.144;18.134;2023-05-20T00:13:20;102297.67;;;11.18;76.25
76598;BME280;65486;53.144;18.134;2023-05-20T00:15:47;102296.57;;;11.18;76.27
76598;BME280;65486;53.144;18.134;2023-05-20T00:18:14;102295.04;;;11.18;76.35
76598;BME280;65486;53.144;18.134;2023-05-20T00:20:41;102292.33;;;11.19;76.51
76598;BME280;65486;53.144;18.134;2023-05-20T00:23:10;102294.41;;;11.19;76.45
76598;BME280;65486;53.144;18.134;2023-05-20T00:25:38;102292.41;;;11.19;76.42
76598;BME280;65486;53.144;18.134;2023-05-20T00:28:06;102287.45;;;11.19;76.55
76598;BME280;65486;53.144;18.134;2023-05-20T00:30:39;102286.20;;;11.19;76.62
76598;BME280;65486;53.144;18.134;2023-05-20T00:33:09;102284.04;;;11.18;76.69
76598;BME280;65486;53.144;18.134;2023-05-20T00:35:40;102279.90;;;11.17;76.61
76598;BME280;65486;53.144;18.134;2023-05-20T00:38:13;102283.95;;;11.17;77.04
76598;BME280;65486;53.144;18.134;2023-05-20T00:40:40;102285.13;;;11.17;77.26
76598;BME280;65486;53.144;18.134;2023-05-20T00:43:08;102283.50;;;11.16;77.05
76598;BME280;65486;53.144;18.134;2023-05-20T00:45:36;102280.38;;;11.15;77.18
76598;BME280;65486;53.144;18.134;2023-05-20T00:48:06;102274.61;;;11.13;77.32
76598;BME280;65486;53.144;18.134;2023-05-20T00:50:34;102275.98;;;11.13;77.38
76598;BME280;65486;53.144;18.134;2023-05-20T00:53:02;102272.30;;;11.11;77.32
76598;BME280;65486;53.144;18.134;2023-05-20T00:55:29;102269.16;;;11.11;77.25
76598;BME280;65486;53.144;18.134;2023-05-20T00:57:56;102271.00;;;11.12;77.06
76598;BME280;65486;53.144;18.134;2023-05-20T01:00:26;102271.89;;;11.12;77.09
76598;BME280;65486;53.144;18.134;2023-05-20T01:02:54;102272.66;;;11.12;77.03
76598;BME280;65486;53.144;18.134;2023-05-20T01:05:22;102275.87;;;11.11;77.56
76598;BME280;65486;53.144;18.134;2023-05-20T01:07:49;102278.05;;;11.10;77.11
76598;BME280;65486;53.144;18.134;2023-05-20T01:10:16;102272.22;;;11.09;77.22
76598;BME280;65486;53.144;18.134;2023-05-20T01:12:50;102272.25;;;11.09;77.31
76598;BME280;65486;53.144;18.134;2023-05-20T01:15:21;102269.27;;;11.08;77.12
76598;BME280;65486;53.144;18.134;2023-05-20T01:17:51;102270.97;;;11.07;77.13
76598;BME280;65486;53.144;18.134;2023-05-20T01:20:21;102266.08;;;11.07;77.52
76598;BME280;65486;53.144;18.134;2023-05-20T01:22:52;102265.77;;;11.06;77.27
76598;BME280;65486;53.144;18.134;2023-05-20T01:25:21;102269.19;;;11.07;77.15
76598;BME280;65486;53.144;18.134;2023-05-20T01:27:49;102266.59;;;11.07;77.55
76598;BME280;65486;53.144;18.134;2023-05-20T01:30:21;102270.77;;;11.06;77.52
76598;BME280;65486;53.144;18.134;2023-05-20T01:32:53;102270.68;;;11.05;77.33
76598;BME280;65486;53.144;18.134;2023-05-20T01:35:22;102269.61;;;11.05;77.66
76598;BME280;65486;53.144;18.134;2023-05-20T01:37:51;102274.55;;;11.05;77.79
76598;BME280;65486;53.144;18.134;2023-05-20T01:40:20;102263.84;;;10.99;77.55
76598;BME280;65486;53.144;18.134;2023-05-20T01:42:49;102274.45;;;11.04;77.53
76598;BME280;65486;53.144;18.134;2023-05-20T01:45:19;102267.61;;;11.05;77.83
76598;BME280;65486;53.144;18.134;2023-05-20T01:47:47;102265.04;;;11.03;77.58
76598;BME280;65486;53.144;18.134;2023-05-20T01:50:14;102265.80;;;11.03;77.43
76598;BME280;65486;53.144;18.134;2023-05-20T01:52:41;102261.13;;;11.02;77.66
76598;BME280;65486;53.144;18.134;2023-05-20T01:55:08;102260.95;;;11.02;77.50
76598;BME280;65486;53.144;18.134;2023-05-20T01:57:36;102259.16;;;11.02;77.85
76598;BME280;65486;53.144;18.134;2023-05-20T02:00:08;102260.63;;;11.00;77.58
76598;BME280;65486;53.144;18.134;2023-05-20T02:02:41;102259.77;;;11.00;77.75
76598;BME280;65486;53.144;18.134;2023-05-20T02:05:11;102259.80;;;10.99;77.65
76598;BME280;65486;53.144;18.134;2023-05-20T02:07:39;102263.36;;;10.99;77.92
76598;BME280;65486;53.144;18.134;2023-05-20T02:10:07;102261.82;;;10.98;77.81
76598;BME280;65486;53.144;18.134;2023-05-20T02:12:36;102260.02;;;10.96;77.68
76598;BME280;65486;53.144;18.134;2023-05-20T02:15:08;102263.89;;;10.96;77.71
76598;BME280;65486;53.144;18.134;2023-05-20T02:17:35;102264.06;;;10.96;77.79
76598;BME280;65486;53.144;18.134;2023-05-20T02:20:04;102259.48;;;10.96;77.82
76598;BME280;65486;53.144;18.134;2023-05-20T02:22:33;102258.27;;;10.96;77.68
76598;BME280;65486;53.144;18.134;2023-05-20T02:25:01;102255.64;;;10.96;77.74
76598;BME280;65486;53.144;18.134;2023-05-20T02:27:29;102257.86;;;10.94;77.94
76598;BME280;65486;53.144;18.134;2023-05-20T02:29:57;102254.52;;;10.93;77.71
76598;BME280;65486;53.144;18.134;2023-05-20T02:32:25;102259.11;;;10.93;77.86
76598;BME280;65486;53.144;18.134;2023-05-20T02:34:56;102253.96;;;10.92;77.72
76598;BME280;65486;53.144;18.134;2023-05-20T02:37:23;102252.48;;;10.92;77.94
76598;BME280;65486;53.144;18.134;2023-05-20T02:39:50;102251.93;;;10.92;77.86
76598;BME280;65486;53.144;18.134;2023-05-20T02:42:17;102253.08;;;10.92;77.70
76598;BME280;65486;53.144;18.134;2023-05-20T02:44:45;102252.39;;;10.91;77.93
76598;BME280;65486;53.144;18.134;2023-05-20T02:47:13;102251.09;;;10.90;77.90
76598;BME280;65486;53.144;18.134;2023-05-20T02:49:39;102251.05;;;10.89;77.88
76598;BME280;65486;53.144;18.134;2023-05-20T02:52:06;102250.46;;;10.88;77.96
76598;BME280;65486;53.144;18.134;2023-05-20T02:54:37;102249.86;;;10.86;78.08
76598;BME280;65486;53.144;18.134;2023-05-20T02:57:05;102249.91;;;10.85;78.14
76598;BME280;65486;53.144;18.134;2023-05-20T02:59:32;102252.35;;;10.84;78.15
76598;BME280;65486;53.144;18.134;2023-05-20T03:01:58;102251.27;;;10.83;78.11
76598;BME280;65486;53.144;18.134;2023-05-20T03:04:25;102252.80;;;10.84;78.15
76598;BME280;65486;53.144;18.134;2023-05-20T03:06:52;102249.95;;;10.83;77.82
76598;BME280;65486;53.144;18.134;2023-05-20T03:09:19;102250.25;;;10.83;78.14
76598;BME280;65486;53.144;18.134;2023-05-20T03:11:47;102254.15;;;10.83;78.02
76598;BME280;65486;53.144;18.134;2023-05-20T03:14:14;102257.75;;;10.82;78.12
76598;BME280;65486;53.144;18.134;2023-05-20T03:16:41;102262.05;;;10.82;77.99
76598;BME280;65486;53.144;18.134;2023-05-20T03:19:13;102260.23;;;10.82;77.95
76598;BME280;65486;53.144;18.134;2023-05-20T03:21:40;102262.64;;;10.83;77.83
76598;BME280;65486;53.144;18.134;2023-05-20T03:24:08;102262.11;;;10.84;77.83
76598;BME280;65486;53.144;18.134;2023-05-20T03:26:38;102261.52;;;10.84;77.78
76598;BME280;65486;53.144;18.134;2023-05-20T03:29:09;102263.73;;;10.84;77.83
76598;BME280;65486;53.144;18.134;2023-05-20T03:31:36;102265.39;;;10.84;78.03
76598;BME280;65486;53.144;18.134;2023-05-20T03:34:04;102265.73;;;10.85;77.62
76598;BME280;65486;53.144;18.134;2023-05-20T03:36:33;102265.35;;;10.85;77.78
76598;BME280;65486;53.144;18.134;2023-05-20T03:39:00;102268.27;;;10.85;77.70
76598;BME280;65486;53.144;18.134;2023-05-20T03:41:31;102274.53;;;10.85;77.65
76598;BME280;65486;53.144;18.134;2023-05-20T03:43:59;102273.19;;;10.85;77.72
76598;BME280;65486;53.144;18.134;2023-05-20T03:46:29;102272.36;;;10.85;77.32
76598;BME280;65486;53.144;18.134;2023-05-20T03:48:59;102269.63;;;10.86;77.55
76598;BME280;65486;53.144;18.134;2023-05-20T03:51:27;102275.03;;;10.87;77.39
76598;BME280;65486;53.144;18.134;2023-05-20T03:53:56;102278.09;;;10.88;77.30
76598;BME280;65486;53.144;18.134;2023-05-20T03:56:23;102276.92;;;10.89;77.14
76598;BME280;65486;53.144;18.134;2023-05-20T03:58:50;102276.30;;;10.91;77.25
76598;BME280;65486;53.144;18.134;2023-05-20T04:01:17;102269.63;;;10.92;77.16
76598;BME280;65486;53.144;18.134;2023-05-20T04:03:45;102267.81;;;10.91;77.10
76598;BME280;65486;53.144;18.134;2023-05-20T04:06:13;102271.98;;;10.92;76.96
76598;BME280;65486;53.144;18.134;2023-05-20T04:08:41;102277.70;;;10.92;77.04
76598;BME280;65486;53.144;18.134;2023-05-20T04:11:12;102278.45;;;10.93;77.06
76598;BME280;65486;53.144;18.134;2023-05-20T04:13:39;102275.29;;;10.93;76.91
76598;BME280;65486;53.144;18.134;2023-05-20T04:16:06;102279.27;;;10.93;76.80
76598;BME280;65486;53.144;18.134;2023-05-20T04:18:34;102279.16;;;10.93;76.93
76598;BME280;65486;53.144;18.134;2023-05-20T04:21:04;102276.19;;;10.93;76.69
76598;BME280;65486;53.144;18.134;2023-05-20T04:23:31;102275.08;;;10.95;76.72
76598;BME280;65486;53.144;18.134;2023-05-20T04:25:58;102276.11;;;10.96;76.58
76598;BME280;65486;53.144;18.134;2023-05-20T04:28:29;102281.02;;;10.98;76.62
76598;BME280;65486;53.144;18.134;2023-05-20T04:31:00;102278.75;;;10.99;76.45
76598;BME280;65486;53.144;18.134;2023-05-20T04:33:31;102282.02;;;11.03;76.47
76598;BME280;65486;53.144;18.134;2023-05-20T04:35:58;102280.66;;;11.03;76.44
76598;BME280;65486;53.144;18.134;2023-05-20T04:38:28;102281.73;;;11.04;76.45
76598;BME280;65486;53.144;18.134;2023-05-20T04:40:55;102279.38;;;11.05;76.23
76598;BME280;65486;53.144;18.134;2023-05-20T04:43:25;102274.27;;;11.06;76.19
76598;BME280;65486;53.144;18.134;2023-05-20T04:45:56;102268.72;;;11.08;76.24
76598;BME280;65486;53.144;18.134;2023-05-20T04:48:23;102272.48;;;11.10;76.13
76598;BME280;65486;53.144;18.134;2023-05-20T04:50:52;102275.55;;;11.12;76.12
76598;BME280;65486;53.144;18.134;2023-05-20T04:53:20;102276.47;;;11.15;76.13
76598;BME280;65486;53.144;18.134;2023-05-20T04:55:53;102278.42;;;11.20;76.08
76598;BME280;65486;53.144;18.134;2023-05-20T04:58:20;102281.33;;;11.27;75.84
76598;BME280;65486;53.144;18.134;2023-05-20T05:00:50;102279.22;;;11.31;75.44
76598;BME280;65486;53.144;18.134;2023-05-20T05:03:18;102276.98;;;11.36;75.32
76598;BME280;65486;53.144;18.134;2023-05-20T05:05:45;102276.85;;;11.41;75.33
76598;BME280;65486;53.144;18.134;2023-05-20T05:08:12;102276.29;;;11.47;75.23
76598;BME280;65486;53.144;18.134;2023-05-20T05:10:46;102277.01;;;11.53;75.12
76598;BME280;65486;53.144;18.134;2023-05-20T05:13:14;102276.61;;;11.58;74.97
76598;BME280;65486;53.144;18.134;2023-05-20T05:15:41;102281.48;;;11.63;74.71
76598;BME280;65486;53.144;18.134;2023-05-20T05:18:08;102283.56;;;11.67;74.53
76598;BME280;65486;53.144;18.134;2023-05-20T05:20:36;102281.89;;;11.70;74.49
76598;BME280;65486;53.144;18.134;2023-05-20T05:23:03;102275.90;;;11.74;74.33
76598;BME280;65486;53.144;18.134;2023-05-20T05:25:30;102274.42;;;11.78;74.23
76598;BME280;65486;53.144;18.134;2023-05-20T05:27:58;102277.20;;;11.84;74.23
76598;BME280;65486;53.144;18.134;2023-05-20T05:30:25;102274.84;;;11.89;73.98
76598;BME280;65486;53.144;18.134;2023-05-20T05:32:53;102274.50;;;11.96;74.06
76598;BME280;65486;53.144;18.134;2023-05-20T05:35:20;102279.57;;;12.01;73.92
76598;BME280;65486;53.144;18.134;2023-05-20T05:37:47;102279.36;;;12.09;73.73
76598;BME280;65486;53.144;18.134;2023-05-20T05:40:15;102274.40;;;12.14;73.64
76598;BME280;65486;53.144;18.134;2023-05-20T05:42:57;102268.25;;;12.20;73.13
76598;BME280;65486;53.144;18.134;2023-05-20T05:45:25;102269.77;;;12.27;73.19
76598;BME280;65486;53.144;18.134;2023-05-20T05:47:53;102274.62;;;12.32;73.03
76598;BME280;65486;53.144;18.134;2023-05-20T05:50:20;102275.90;;;12.36;72.70
76598;BME280;65486;53.144;18.134;2023-05-20T05:52:47;102273.89;;;12.40;72.83
76598;BME280;65486;53.144;18.134;2023-05-20T05:55:16;102271.94;;;12.44;72.52
76598;BME280;65486;53.144;18.134;2023-05-20T05:57:46;102274.05;;;12.48;72.48
76598;BME280;65486;53.144;18.134;2023-05-20T06:00:16;102275.95;;;12.52;72.26
76598;BME280;65486;53.144;18.134;2023-05-20T06:02:47;102280.75;;;12.54;72.29
76598;BME280;65486;53.144;18.134;2023-05-20T06:05:22;102273.86;;;12.53;72.47
76598;BME280;65486;53.144;18.134;2023-05-20T06:07:49;102282.00;;;12.64;72.00
76598;BME280;65486;53.144;18.134;2023-05-20T06:10:16;102283.04;;;12.68;71.91
76598;BME280;65486;53.144;18.134;2023-05-20T06:12:44;102284.77;;;12.71;72.09
76598;BME280;65486;53.144;18.134;2023-05-20T06:15:12;102282.71;;;12.74;71.70
76598;BME280;65486;53.144;18.134;2023-05-20T06:17:42;102285.64;;;12.78;71.63
76598;BME280;65486;53.144;18.134;2023-05-20T06:20:10;102283.09;;;12.84;71.49
76598;BME280;65486;53.144;18.134;2023-05-20T06:22:37;102284.84;;;12.91;71.43
76598;BME280;65486;53.144;18.134;2023-05-20T06:25:04;102282.73;;;12.97;71.45
76598;BME280;65486;53.144;18.134;2023-05-20T06:27:34;102285.70;;;13.02;71.27
76598;BME280;65486;53.144;18.134;2023-05-20T06:30:02;102285.14;;;13.06;70.59
76598;BME280;65486;53.144;18.134;2023-05-20T06:32:29;102285.58;;;13.10;70.56
76598;BME280;65486;53.144;18.134;2023-05-20T06:34:57;102282.78;;;13.13;70.56
76598;BME280;65486;53.144;18.134;2023-05-20T06:37:25;102277.45;;;13.19;70.60
76598;BME280;65486;53.144;18.134;2023-05-20T06:39:53;102282.31;;;13.28;70.47
76598;BME280;65486;53.144;18.134;2023-05-20T06:42:21;102278.14;;;13.33;70.17
76598;BME280;65486;53.144;18.134;2023-05-20T06:45:02;102277.96;;;13.41;70.41
76598;BME280;65486;53.144;18.134;2023-05-20T06:47:44;102277.03;;;13.50;70.15
76598;BME280;65486;53.144;18.134;2023-05-20T06:50:14;102279.58;;;13.57;69.59
76598;BME280;65486;53.144;18.134;2023-05-20T06:52:40;102277.99;;;13.65;69.66
76598;BME280;65486;53.144;18.134;2023-05-20T06:55:08;102275.17;;;13.72;69.29
76598;BME280;65486;53.144;18.134;2023-05-20T06:57:35;102277.86;;;13.77;69.06
76598;BME280;65486;53.144;18.134;2023-05-20T07:00:03;102281.80;;;13.81;69.22
76598;BME280;65486;53.144;18.134;2023-05-20T07:02:34;102277.05;;;13.86;69.09
76598;BME280;65486;53.144;18.134;2023-05-20T07:05:01;102282.95;;;13.92;68.89
76598;BME280;65486;53.144;18.134;2023-05-20T07:07:29;102280.29;;;13.98;68.70
76598;BME280;65486;53.144;18.134;2023-05-20T07:09:59;102277.85;;;14.08;68.46
76598;BME280;65486;53.144;18.134;2023-05-20T07:12:26;102275.35;;;14.17;68.08
76598;BME280;65486;53.144;18.134;2023-05-20T07:14:53;102272.46;;;14.26;67.70
76598;BME280;65486;53.144;18.134;2023-05-20T07:17:23;102272.55;;;14.31;67.54
76598;BME280;65486;53.144;18.134;2023-05-20T07:19:51;102269.90;;;14.40;67.53
76598;BME280;65486;53.144;18.134;2023-05-20T07:22:18;102264.97;;;14.52;66.97
76598;BME280;65486;53.144;18.134;2023-05-20T07:24:55;102261.69;;;14.65;67.02
76598;BME280;65486;53.144;18.134;2023-05-20T07:27:29;102261.64;;;14.78;66.57
76598;BME280;65486;53.144;18.134;2023-05-20T07:29:59;102262.40;;;14.86;66.16
76598;BME280;65486;53.144;18.134;2023-05-20T07:32:30;102260.30;;;14.92;65.27
76598;BME280;65486;53.144;18.134;2023-05-20T07:35:00;102255.98;;;15.00;65.59
76598;BME280;65486;53.144;18.134;2023-05-20T07:37:39;102253.59;;;15.17;65.18
76598;BME280;65486;53.144;18.134;2023-05-20T07:40:06;102247.91;;;15.45;65.26
76598;BME280;65486;53.144;18.134;2023-05-20T07:42:44;102248.12;;;15.73;63.86
76598;BME280;65486;53.144;18.134;2023-05-20T07:45:12;102246.63;;;15.92;63.88
76598;BME280;65486;53.144;18.134;2023-05-20T07:47:39;102247.20;;;16.08;63.65
76598;BME280;65486;53.144;18.134;2023-05-20T07:50:08;102244.90;;;16.21;62.73
76598;BME280;65486;53.144;18.134;2023-05-20T07:52:36;102249.94;;;16.22;62.71
76598;BME280;65486;53.144;18.134;2023-05-20T07:55:04;102249.98;;;16.21;62.77
76598;BME280;65486;53.144;18.134;2023-05-20T07:57:33;102244.33;;;16.24;62.49
76598;BME280;65486;53.144;18.134;2023-05-20T08:00:00;102241.08;;;16.33;62.45
76598;BME280;65486;53.144;18.134;2023-05-20T08:02:28;102243.20;;;16.55;62.40
76598;BME280;65486;53.144;18.134;2023-05-20T08:04:56;102240.13;;;16.76;61.81
76598;BME280;65486;53.144;18.134;2023-05-20T08:07:32;102239.95;;;16.89;61.37
76598;BME280;65486;53.144;18.134;2023-05-20T08:10:02;102229.23;;;17.06;61.22
76598;BME280;65486;53.144;18.134;2023-05-20T08:12:30;102228.88;;;17.37;60.12
76598;BME280;65486;53.144;18.134;2023-05-20T08:14:57;102233.23;;;17.66;59.96
76598;BME280;65486;53.144;18.134;2023-05-20T08:17:26;102230.44;;;18.09;59.45
76598;BME280;65486;53.144;18.134;2023-05-20T08:19:54;102225.88;;;18.43;57.12
76598;BME280;65486;53.144;18.134;2023-05-20T08:22:24;102223.77;;;18.66;57.34
76598;BME280;65486;53.144;18.134;2023-05-20T08:24:51;102221.62;;;18.93;57.18
76598;BME280;65486;53.144;18.134;2023-05-20T08:27:19;102217.14;;;19.17;56.39
76598;BME280;65486;53.144;18.134;2023-05-20T08:29:49;102214.72;;;19.28;55.96
76598;BME280;65486;53.144;18.134;2023-05-20T08:32:16;102212.92;;;19.40;55.45
76598;BME280;65486;53.144;18.134;2023-05-20T08:34:47;102215.08;;;19.56;55.22
76598;BME280;65486;53.144;18.134;2023-05-20T08:37:15;102219.58;;;19.65;54.58
76598;BME280;65486;53.144;18.134;2023-05-20T08:39:42;102215.48;;;19.78;54.25
76598;BME280;65486;53.144;18.134;2023-05-20T08:42:11;102208.75;;;19.89;53.77
76598;BME280;65486;53.144;18.134;2023-05-20T08:44:40;102213.48;;;19.95;53.27
76598;BME280;65486;53.144;18.134;2023-05-20T08:47:10;102201.39;;;20.07;52.41
76598;BME280;65486;53.144;18.134;2023-05-20T08:49:37;102207.25;;;20.62;51.73
76598;BME280;65486;53.144;18.134;2023-05-20T08:52:10;102198.74;;;21.01;50.70
76598;BME280;65486;53.144;18.134;2023-05-20T08:54:45;102193.25;;;21.31;49.96
76598;BME280;65486;53.144;18.134;2023-05-20T08:57:18;102191.31;;;22.48;47.60
76598;BME280;65486;53.144;18.134;2023-05-20T08:59:48;102175.80;;;23.63;46.35
76598;BME280;65486;53.144;18.134;2023-05-20T09:02:20;102177.77;;;24.95;43.63
76598;BME280;65486;53.144;18.134;2023-05-20T09:04:48;102178.71;;;26.15;41.97
76598;BME280;65486;53.144;18.134;2023-05-20T09:08:03;102180.23;;;27.09;39.80
76598;BME280;65486;53.144;18.134;2023-05-20T09:10:39;102175.35;;;27.96;38.97
76598;BME280;65486;53.144;18.134;2023-05-20T09:13:18;102171.95;;;28.75;37.36
76598;BME280;65486;53.144;18.134;2023-05-20T09:15:52;102170.64;;;29.26;36.43
76598;BME280;65486;53.144;18.134;2023-05-20T09:18:24;102160.60;;;29.69;34.67
76598;BME280;65486;53.144;18.134;2023-05-20T09:20:56;102162.21;;;29.88;32.59
76598;BME280;65486;53.144;18.134;2023-05-20T09:23:28;102157.70;;;29.95;33.65
76598;BME280;65486;53.144;18.134;2023-05-20T09:25:59;102160.81;;;30.28;31.58
76598;BME280;65486;53.144;18.134;2023-05-20T09:28:38;102146.98;;;30.31;31.00
76598;BME280;65486;53.144;18.134;2023-05-20T09:31:08;102133.78;;;30.35;31.55
76598;BME280;65486;53.144;18.134;2023-05-20T09:33:37;102153.40;;;30.68;30.55
76598;BME280;65486;53.144;18.134;2023-05-20T09:36:43;102153.18;;;30.94;29.92
76598;BME280;65486;53.144;18.134;2023-05-20T09:39:28;102146.29;;;31.32;29.82
76598;BME280;65486;53.144;18.134;2023-05-20T09:46:19;102132.71;;;31.96;27.52
76598;BME280;65486;53.144;18.134;2023-05-20T09:49:09;102142.83;;;31.45;27.54
76598;BME280;65486;53.144;18.134;2023-05-20T09:51:39;102145.68;;;30.31;28.78
76598;BME280;65486;53.144;18.134;2023-05-20T09:54:18;102145.34;;;28.88;29.68
76598;BME280;65486;53.144;18.134;2023-05-20T09:56:48;102143.27;;;27.53;31.20
76598;BME280;65486;53.144;18.134;2023-05-20T09:59:26;102149.51;;;26.46;32.63
76598;BME280;65486;53.144;18.134;2023-05-20T10:01:53;102146.48;;;25.57;33.77
76598;BME280;65486;53.144;18.134;2023-05-20T10:04:22;102148.01;;;25.12;34.80
76598;BME280;65486;53.144;18.134;2023-05-20T10:16:34;102143.44;;;24.18;37.20
76598;BME280;65486;53.144;18.134;2023-05-20T10:19:33;102141.51;;;26.03;35.47
76598;BME280;65486;53.144;18.134;2023-05-20T10:22:09;102145.84;;;26.59;34.21
76598;BME280;65486;53.144;18.134;2023-05-20T10:24:42;102140.80;;;26.42;34.38
76598;BME280;65486;53.144;18.134;2023-05-20T10:27:13;102135.10;;;26.82;34.12
76598;BME280;65486;53.144;18.134;2023-05-20T10:29:48;102129.63;;;26.85;34.59
76598;BME280;65486;53.144;18.134;2023-05-20T10:32:30;102128.65;;;26.32;35.01
76598;BME280;65486;53.144;18.134;2023-05-20T10:35:07;102127.73;;;26.09;35.18
76598;BME280;65486;53.144;18.134;2023-05-20T10:37:43;102122.86;;;26.10;35.18
76598;BME280;65486;53.144;18.134;2023-05-20T10:40:13;102117.88;;;26.03;35.56
76598;BME280;65486;53.144;18.134;2023-05-20T10:42:41;102121.02;;;25.53;35.94
76598;BME280;65486;53.144;18.134;2023-05-20T10:45:10;102120.20;;;25.43;35.77
76598;BME280;65486;53.144;18.134;2023-05-20T10:47:53;102118.19;;;26.18;35.21
76598;BME280;65486;53.144;18.134;2023-05-20T10:50:41;102109.81;;;26.85;34.62
76598;BME280;65486;53.144;18.134;2023-05-20T10:53:38;102106.38;;;27.50;34.21
76598;BME280;65486;53.144;18.134;2023-05-20T10:56:16;102107.89;;;27.44;33.36
76598;BME280;65486;53.144;18.134;2023-05-20T10:58:44;102110.41;;;26.99;34.27
76598;BME280;65486;53.144;18.134;2023-05-20T11:01:25;102112.42;;;26.86;34.54
76598;BME280;65486;53.144;18.134;2023-05-20T11:04:20;102104.88;;;26.26;35.23
76598;BME280;65486;53.144;18.134;2023-05-20T11:07:10;102112.52;;;25.56;36.02
76598;BME280;65486;53.144;18.134;2023-05-20T11:09:48;102104.56;;;24.97;36.92
76598;BME280;65486;53.144;18.134;2023-05-20T11:12:15;102102.58;;;24.47;37.70
76598;BME280;65486;53.144;18.134;2023-05-20T11:14:42;102105.66;;;24.08;38.52
76598;BME280;65486;53.144;18.134;2023-05-20T11:17:09;102101.90;;;23.79;39.28
76598;BME280;65486;53.144;18.134;2023-05-20T11:19:36;102097.76;;;23.63;39.74
76598;BME280;65486;53.144;18.134;2023-05-20T11:22:06;102099.98;;;23.49;39.92
76598;BME280;65486;53.144;18.134;2023-05-20T11:24:34;102097.45;;;23.54;40.23
76598;BME280;65486;53.144;18.134;2023-05-20T11:27:13;102098.81;;;23.88;40.21
76598;BME280;65486;53.144;18.134;2023-05-20T11:29:42;102101.77;;;24.00;40.10
76598;BME280;65486;53.144;18.134;2023-05-20T11:32:11;102106.18;;;23.88;40.06
76598;BME280;65486;53.144;18.134;2023-05-20T11:34:40;102101.65;;;23.98;39.86
76598;BME280;65486;53.144;18.134;2023-05-20T11:37:10;102096.52;;;24.58;39.05
76598;BME280;65486;53.144;18.134;2023-05-20T11:39:39;102089.91;;;25.23;38.68
76598;BME280;65486;53.144;18.134;2023-05-20T11:42:10;102078.34;;;25.76;37.21
76598;BME280;65486;53.144;18.134;2023-05-20T11:44:43;102088.90;;;25.68;37.29
76598;BME280;65486;53.144;18.134;2023-05-20T11:47:23;102084.71;;;25.23;37.86
76598;BME280;65486;53.144;18.134;2023-05-20T11:49:57;102092.48;;;24.79;38.76
76598;BME280;65486;53.144;18.134;2023-05-20T11:52:37;102089.39;;;24.37;39.62
76598;BME280;65486;53.144;18.134;2023-05-20T11:55:10;102088.40;;;23.96;40.43
76598;BME280;65486;53.144;18.134;2023-05-20T11:57:41;102092.81;;;23.73;40.63
76598;BME280;65486;53.144;18.134;2023-05-20T12:00:11;102091.63;;;23.70;40.92
76598;BME280;65486;53.144;18.134;2023-05-20T12:02:43;102086.48;;;23.96;40.79
76598;BME280;65486;53.144;18.134;2023-05-20T12:05:13;102085.66;;;24.37;40.24
76598;BME280;65486;53.144;18.134;2023-05-20T12:07:43;102082.14;;;24.82;39.74
76598;BME280;65486;53.144;18.134;2023-05-20T12:10:11;102083.02;;;25.24;39.05
76598;BME280;65486;53.144;18.134;2023-05-20T12:12:41;102083.80;;;25.18;38.76
76598;BME280;65486;53.144;18.134;2023-05-20T12:15:09;102074.65;;;24.99;38.78
76598;BME280;65486;53.144;18.134;2023-05-20T12:17:45;102079.16;;;24.91;38.94
76598;BME280;65486;53.144;18.134;2023-05-20T12:20:17;102079.09;;;24.92;39.01
76598;BME280;65486;53.144;18.134;2023-05-20T12:22:54;102079.04;;;24.90;38.94
76598;BME280;65486;53.144;18.134;2023-05-20T12:25:24;102072.61;;;24.84;39.26
76598;BME280;65486;53.144;18.134;2023-05-20T12:28:03;102073.36;;;24.74;39.50
76598;BME280;65486;53.144;18.134;2023-05-20T12:30:32;102070.40;;;24.79;39.84
76598;BME280;65486;53.144;18.134;2023-05-20T12:32:59;102068.31;;;24.77;39.40
76598;BME280;65486;53.144;18.134;2023-05-20T12:35:54;102068.84;;;24.49;39.83
76598;BME280;65486;53.144;18.134;2023-05-20T12:38:29;102065.20;;;24.21;40.51
76598;BME280;65486;53.144;18.134;2023-05-20T12:40:57;102060.56;;;24.01;40.67
76598;BME280;65486;53.144;18.134;2023-05-20T12:43:26;102050.85;;;23.68;40.84
76598;BME280;65486;53.144;18.134;2023-05-20T12:45:55;102052.17;;;23.42;41.89
76598;BME280;65486;53.144;18.134;2023-05-20T12:48:23;102051.81;;;23.19;42.37
76598;BME280;65486;53.144;18.134;2023-05-20T12:50:50;102055.70;;;23.05;42.75
76598;BME280;65486;53.144;18.134;2023-05-20T12:53:22;102050.27;;;22.95;43.17
76598;BME280;65486;53.144;18.134;2023-05-20T12:56:00;102048.08;;;22.96;43.38
76598;BME280;65486;53.144;18.134;2023-05-20T12:58:28;102048.13;;;22.99;43.51
76598;BME280;65486;53.144;18.134;2023-05-20T13:01:02;102044.80;;;22.93;43.36
76598;BME280;65486;53.144;18.134;2023-05-20T13:03:32;102039.64;;;22.97;43.53
76598;BME280;65486;53.144;18.134;2023-05-20T13:06:07;102038.65;;;23.04;43.67
76598;BME280;65486;53.144;18.134;2023-05-20T13:08:42;102034.55;;;23.05;43.60
76598;BME280;65486;53.144;18.134;2023-05-20T13:11:12;102034.01;;;23.11;43.60